Courage — WDC6907 — position and weather

sailwx.info

Track history (hours):
 
Tides and Currents Weather Stations Pressure Air Temp Water Temp Dewpoint Dewpoint Depression Visibility Wind Speed Wind Dir Waves Ship Positions

Courage

More information available from US FCC via Universal Licensing System and Coast Guard Vessel Documentation Center.

Last reported at 2014-Aug-28 21:08 UTC. Time now 2014-Aug-30 18:33 UTC.
Position N 29°19' W 094°47'.

Type: Ship. MMSI: 367063050.

Date/timePositionNaut miles runAvg speedWind from/ knotsBaromVisibWave heightAir tempDewpointWater temp
2014-Aug-28 21:08N 29°19' W 094°47'0 0.0
2014-Aug-28 20:33N 29°19' W 094°47'0 0.0
2014-Aug-28 19:30N 29°19' W 094°47'0 0.0
2014-Aug-28 18:25N 29°19' W 094°47'0 0.0
2014-Aug-28 17:29N 29°19' W 094°47'0 0.0
2014-Aug-28 16:33N 29°19' W 094°47'0 0.0
2014-Aug-28 15:23N 29°19' W 094°47'0 0.0
2014-Aug-28 14:33N 29°19' W 094°47'0 0.0
2014-Aug-28 13:33N 29°19' W 094°47'0 0.0
2014-Aug-28 11:31N 29°19' W 094°47'1 1.4
2014-Aug-28 10:30N 29°20' W 094°46'  
2014-Aug-25 09:10N 25°49' W 079°35'811.2
2014-Aug-25 08:30N 25°57' W 079°34'1111.3
2014-Aug-25 07:33N 26°07' W 079°33'1211.6
2014-Aug-25 06:33N 26°19' W 079°32'1211.7
2014-Aug-25 05:33N 26°30' W 079°31'1211.9
2014-Aug-25 04:33N 26°42' W 079°30'472 9.3
2014-Aug-23 01:34N 34°09' W 076°32'1413.6
2014-Aug-23 00:34N 34°18' W 076°20'1413.6
2014-Aug-22 23:34N 34°27' W 076°07'1414.1
2014-Aug-22 22:33N 34°36' W 075°54'13612.2
2014-Aug-22 11:26N 36°52' W 075°52'1112.3
2014-Aug-22 10:33N 36°60' W 076°01'1615.6
2014-Aug-22 09:33N 37°14' W 076°08'9916.4
2014-Aug-22 03:32N 38°52' W 076°24'1515.7
2014-Aug-22 02:33N 39°07' W 076°24'1110.9
2014-Aug-22 01:33N 39°15' W 076°34'1 0.7
2014-Aug-22 00:33N 39°15' W 076°35'0 0.0
2014-Aug-21 23:33N 39°15' W 076°35'0 0.0
2014-Aug-21 22:33N 39°15' W 076°35'0 0.0
2014-Aug-21 21:33N 39°15' W 076°35'0 0.0
2014-Aug-21 20:33N 39°15' W 076°35'0 0.0
2014-Aug-21 19:33N 39°15' W 076°35'0 0.0
2014-Aug-21 18:33N 39°15' W 076°35'0 0.0
2014-Aug-21 17:33N 39°15' W 076°35'0 0.0
2014-Aug-21 16:33N 39°15' W 076°35'0 0.0
2014-Aug-21 15:33N 39°15' W 076°35'0 0.0
2014-Aug-21 14:33N 39°15' W 076°35'0 0.0
2014-Aug-21 13:33N 39°15' W 076°35'0 0.0
2014-Aug-21 12:33N 39°15' W 076°35'0 0.0
2014-Aug-21 11:33N 39°15' W 076°35'0 0.0
2014-Aug-21 10:33N 39°15' W 076°35'0 0.0
2014-Aug-21 09:33N 39°15' W 076°35'0 0.0
2014-Aug-21 08:33N 39°15' W 076°35'0 0.0
2014-Aug-21 07:33N 39°15' W 076°35'0 0.0
2014-Aug-21 06:33N 39°15' W 076°35'0 0.0
2014-Aug-21 05:33N 39°15' W 076°35'0 0.0
2014-Aug-21 04:33N 39°15' W 076°35'0 0.0
2014-Aug-21 03:33N 39°15' W 076°35'0 0.0
2014-Aug-21 02:33N 39°15' W 076°35'0 0.0
2014-Aug-21 01:33N 39°15' W 076°35'0 0.0
2014-Aug-21 00:33N 39°15' W 076°35'1 1.3
2014-Aug-20 23:33N 39°15' W 076°33'1 1.1
2014-Aug-20 22:33N 39°14' W 076°32'0 0.0
2014-Aug-20 21:33N 39°14' W 076°32'0 0.0
2014-Aug-20 20:33N 39°14' W 076°32'0 0.0
2014-Aug-20 19:33N 39°14' W 076°32'0 0.0
2014-Aug-20 18:33N 39°14' W 076°32'0 0.0
2014-Aug-20 17:33N 39°14' W 076°32'0 0.0
2014-Aug-20 16:33N 39°14' W 076°32'0 0.0
2014-Aug-20 15:33N 39°14' W 076°32'0 0.0
2014-Aug-20 14:33N 39°14' W 076°32'0 0.0
2014-Aug-20 13:33N 39°14' W 076°32'0 0.0
2014-Aug-20 12:33N 39°14' W 076°32'0 0.0
2014-Aug-20 11:33N 39°14' W 076°32'0 0.0
2014-Aug-20 10:33N 39°14' W 076°32'0 0.0
2014-Aug-20 09:33N 39°14' W 076°32'0 0.0
2014-Aug-20 08:33N 39°14' W 076°32'0 0.0
2014-Aug-20 07:33N 39°14' W 076°32'0 0.0
2014-Aug-20 06:33N 39°14' W 076°32'0 0.0
2014-Aug-20 05:33N 39°14' W 076°32'0 0.0
2014-Aug-20 04:33N 39°14' W 076°32'0 0.0
2014-Aug-20 03:33N 39°14' W 076°32'0 0.0
2014-Aug-20 02:33N 39°14' W 076°32'0 0.0
2014-Aug-20 01:33N 39°14' W 076°32'0 0.0
2014-Aug-20 00:33N 39°14' W 076°32'0 0.0
2014-Aug-19 23:33N 39°14' W 076°32'0 0.0
2014-Aug-19 22:33N 39°14' W 076°32'2 1.6
2014-Aug-19 21:33N 39°13' W 076°31'1110.9
2014-Aug-19 20:33N 39°04' W 076°24'1515.2
2014-Aug-19 19:33N 38°49' W 076°25'9315.5
2014-Aug-19 13:33N 37°16' W 076°07'1514.6
2014-Aug-19 12:33N 37°02' W 076°04'  
Track history (hours):
 
Tides and Currents Weather Stations Pressure Air Temp Water Temp Dewpoint Dewpoint Depression Visibility Wind Speed Wind Dir Waves Ship Positions

Courage

More information available from US FCC via Universal Licensing System and Coast Guard Vessel Documentation Center.

Last reported at 2014-Aug-28 21:08 UTC. Time now 2014-Aug-30 18:33 UTC.
Position N 29°19' W 094°47'.

Type: Ship. MMSI: 367063050.

Date/timePositionNaut miles runAvg speedWind from/ knotsBaromVisibWave heightAir tempDewpointWater temp
2014-Aug-28 21:08N 29°19' W 094°47'0 0.0
2014-Aug-28 20:33N 29°19' W 094°47'0 0.0
2014-Aug-28 19:30N 29°19' W 094°47'0 0.0
2014-Aug-28 18:25N 29°19' W 094°47'0 0.0
2014-Aug-28 17:29N 29°19' W 094°47'0 0.0
2014-Aug-28 16:33N 29°19' W 094°47'0 0.0
2014-Aug-28 15:23N 29°19' W 094°47'0 0.0
2014-Aug-28 14:33N 29°19' W 094°47'0 0.0
2014-Aug-28 13:33N 29°19' W 094°47'0 0.0
2014-Aug-28 11:31N 29°19' W 094°47'1 1.4
2014-Aug-28 10:30N 29°20' W 094°46'  
2014-Aug-25 09:10N 25°49' W 079°35'811.2
2014-Aug-25 08:30N 25°57' W 079°34'1111.3
2014-Aug-25 07:33N 26°07' W 079°33'1211.6
2014-Aug-25 06:33N 26°19' W 079°32'1211.7
2014-Aug-25 05:33N 26°30' W 079°31'1211.9
2014-Aug-25 04:33N 26°42' W 079°30'472 9.3
2014-Aug-23 01:34N 34°09' W 076°32'1413.6
2014-Aug-23 00:34N 34°18' W 076°20'1413.6
2014-Aug-22 23:34N 34°27' W 076°07'1414.1
2014-Aug-22 22:33N 34°36' W 075°54'13612.2
2014-Aug-22 11:26N 36°52' W 075°52'1112.3
2014-Aug-22 10:33N 36°60' W 076°01'1615.6
2014-Aug-22 09:33N 37°14' W 076°08'9916.4
2014-Aug-22 03:32N 38°52' W 076°24'1515.7
2014-Aug-22 02:33N 39°07' W 076°24'1110.9
2014-Aug-22 01:33N 39°15' W 076°34'1 0.7
2014-Aug-22 00:33N 39°15' W 076°35'0 0.0
2014-Aug-21 23:33N 39°15' W 076°35'0 0.0
2014-Aug-21 22:33N 39°15' W 076°35'0 0.0
2014-Aug-21 21:33N 39°15' W 076°35'0 0.0
2014-Aug-21 20:33N 39°15' W 076°35'0 0.0
2014-Aug-21 19:33N 39°15' W 076°35'0 0.0
2014-Aug-21 18:33N 39°15' W 076°35'0 0.0
2014-Aug-21 17:33N 39°15' W 076°35'0 0.0
2014-Aug-21 16:33N 39°15' W 076°35'0 0.0
2014-Aug-21 15:33N 39°15' W 076°35'0 0.0
2014-Aug-21 14:33N 39°15' W 076°35'0 0.0
2014-Aug-21 13:33N 39°15' W 076°35'0 0.0
2014-Aug-21 12:33N 39°15' W 076°35'0 0.0
2014-Aug-21 11:33N 39°15' W 076°35'0 0.0
2014-Aug-21 10:33N 39°15' W 076°35'0 0.0
2014-Aug-21 09:33N 39°15' W 076°35'0 0.0
2014-Aug-21 08:33N 39°15' W 076°35'0 0.0
2014-Aug-21 07:33N 39°15' W 076°35'0 0.0
2014-Aug-21 06:33N 39°15' W 076°35'0 0.0
2014-Aug-21 05:33N 39°15' W 076°35'0 0.0
2014-Aug-21 04:33N 39°15' W 076°35'0 0.0
2014-Aug-21 03:33N 39°15' W 076°35'0 0.0
2014-Aug-21 02:33N 39°15' W 076°35'0 0.0
2014-Aug-21 01:33N 39°15' W 076°35'0 0.0
2014-Aug-21 00:33N 39°15' W 076°35'1 1.3
2014-Aug-20 23:33N 39°15' W 076°33'1 1.1
2014-Aug-20 22:33N 39°14' W 076°32'0 0.0
2014-Aug-20 21:33N 39°14' W 076°32'0 0.0
2014-Aug-20 20:33N 39°14' W 076°32'0 0.0
2014-Aug-20 19:33N 39°14' W 076°32'0 0.0
2014-Aug-20 18:33N 39°14' W 076°32'0 0.0
2014-Aug-20 17:33N 39°14' W 076°32'0 0.0
2014-Aug-20 16:33N 39°14' W 076°32'0 0.0
2014-Aug-20 15:33N 39°14' W 076°32'0 0.0
2014-Aug-20 14:33N 39°14' W 076°32'0 0.0
2014-Aug-20 13:33N 39°14' W 076°32'0 0.0
2014-Aug-20 12:33N 39°14' W 076°32'0 0.0
2014-Aug-20 11:33N 39°14' W 076°32'0 0.0
2014-Aug-20 10:33N 39°14' W 076°32'0 0.0
2014-Aug-20 09:33N 39°14' W 076°32'0 0.0
2014-Aug-20 08:33N 39°14' W 076°32'0 0.0
2014-Aug-20 07:33N 39°14' W 076°32'0 0.0
2014-Aug-20 06:33N 39°14' W 076°32'0 0.0
2014-Aug-20 05:33N 39°14' W 076°32'0 0.0
2014-Aug-20 04:33N 39°14' W 076°32'0 0.0
2014-Aug-20 03:33N 39°14' W 076°32'0 0.0
2014-Aug-20 02:33N 39°14' W 076°32'0 0.0
2014-Aug-20 01:33N 39°14' W 076°32'0 0.0
2014-Aug-20 00:33N 39°14' W 076°32'0 0.0
2014-Aug-19 23:33N 39°14' W 076°32'0 0.0
2014-Aug-19 22:33N 39°14' W 076°32'2 1.6
2014-Aug-19 21:33N 39°13' W 076°31'1110.9
2014-Aug-19 20:33N 39°04' W 076°24'1515.2
2014-Aug-19 19:33N 38°49' W 076°25'9315.5
2014-Aug-19 13:33N 37°16' W 076°07'1514.6
2014-Aug-19 12:33N 37°02' W 076°04'  

Dump ship's entire track history